Time;durP1;ratioP1;P1;durP2;ratioP2;P2;SDS_P1;SDS_P2;PMS_P1;PMS_P2;Temp;Humidity;BMP_temperature;BMP_pressure;BME280_temperature;BME280_humidity;BME280_pressure;Samples;Min_cycle;Max_cycle;Signal;HPM_P1;HPM_P2
2022/06/04 00:04:00;;;;;;;0.20;0.00;;;21.60;99.90;;;;;;26429855;22;20204;-76
2022/06/04 00:24:26;;;;;;;0.20;0.00;;;21.20;99.90;;;;;;26401076;22;20155;-76
2022/06/04 00:34:32;;;;;;;0.20;0.00;;;21.20;99.90;;;;;;26427448;22;20190;-76
2022/06/04 00:45:15;;;;;;;0.20;0.00;;;21.30;99.90;;;;;;26401321;22;20162;-76
2022/06/04 00:55:21;;;;;;;0.20;0.00;;;21.10;99.90;;;;;;26403971;22;20193;-77
2022/06/04 01:05:30;;;;;;;0.20;0.00;;;21.00;99.90;;;;;;26434291;22;20150;-77
2022/06/04 01:15:49;;;;;;;0.20;0.00;;;20.90;99.90;;;;;;26381531;22;20219;-78
2022/06/04 01:26:26;;;;;;;0.20;0.00;;;20.80;99.90;;;;;;26433845;22;20146;-75
2022/06/04 01:36:34;;;;;;;0.20;0.00;;;20.80;99.90;;;;;;26433883;22;20177;-74
2022/06/04 01:46:45;;;;;;;0.20;0.00;;;20.90;99.90;;;;;;26433068;22;20161;-73
2022/06/04 01:56:53;;;;;;;0.20;0.00;;;20.60;99.90;;;;;;26434229;22;20205;-75
2022/06/04 02:17:27;;;;;;;0.20;0.00;;;19.80;99.90;;;;;;26403832;22;20186;-75
2022/06/04 02:27:32;;;;;;;0.20;0.00;;;19.90;99.90;;;;;;26432954;22;20166;-74
2022/06/04 02:37:46;;;;;;;0.20;0.00;;;19.70;99.90;;;;;;26402433;22;20192;-74
2022/06/04 02:47:55;;;;;;;0.20;0.00;;;19.50;99.90;;;;;;26403889;22;20169;-74
2022/06/04 02:58:07;;;;;;;0.20;0.00;;;19.40;99.90;;;;;;26429624;22;20201;-74
2022/06/04 03:08:12;;;;;;;0.20;0.10;;;19.50;99.90;;;;;;26402561;22;20161;-75
2022/06/04 03:18:16;;;;;;;0.20;0.00;;;19.30;99.90;;;;;;26431888;22;20174;-74
2022/06/04 03:28:21;;;;;;;0.20;0.00;;;19.40;99.90;;;;;;26431106;22;20165;-73
2022/06/04 03:38:26;;;;;;;0.20;0.07;;;19.30;99.90;;;;;;26431714;22;20223;-74
2022/06/04 03:48:31;;;;;;;0.20;0.00;;;19.50;99.90;;;;;;26431333;22;20182;-74
2022/06/04 03:58:35;;;;;;;0.20;0.00;;;19.60;99.90;;;;;;26429115;22;20198;-74
2022/06/04 04:08:40;;;;;;;0.20;0.00;;;19.80;99.90;;;;;;26430365;22;20161;-75
2022/06/04 04:18:44;;;;;;;0.20;0.00;;;20.00;99.90;;;;;;26429282;22;20193;-75
2022/06/04 04:28:49;;;;;;;0.20;0.00;;;20.10;99.90;;;;;;26402249;22;20173;-75
2022/06/04 04:38:53;;;;;;;0.20;0.00;;;19.90;99.90;;;;;;26437182;22;20197;-76
2022/06/04 04:48:58;;;;;;;0.20;0.10;;;19.80;99.90;;;;;;26437411;22;20177;-75
2022/06/04 04:59:02;;;;;;;0.20;0.00;;;19.80;99.90;;;;;;26407428;22;20206;-74
2022/06/04 05:09:08;;;;;;;0.20;0.00;;;20.20;99.90;;;;;;26409335;22;20568;-74
2022/06/04 05:19:13;;;;;;;0.20;0.00;;;20.70;99.90;;;;;;26432664;22;20153;-74
2022/06/04 05:29:19;;;;;;;0.20;0.00;;;20.70;99.90;;;;;;26406534;22;20170;-74
2022/06/04 05:39:24;;;;;;;0.20;0.00;;;20.80;99.90;;;;;;26434556;22;20154;-74
2022/06/04 05:49:29;;;;;;;0.20;0.03;;;20.80;99.90;;;;;;26405782;22;20166;-74
2022/06/04 05:59:33;;;;;;;0.20;0.00;;;20.70;99.90;;;;;;26432739;22;20186;-74
2022/06/04 06:09:38;;;;;;;0.20;0.00;;;21.00;99.90;;;;;;26403540;22;20162;-74
2022/06/04 06:19:42;;;;;;;0.20;0.00;;;21.20;99.90;;;;;;26432610;22;20556;-74
2022/06/04 06:29:47;;;;;;;0.20;0.00;;;21.30;99.90;;;;;;26427732;22;20174;-74
2022/06/04 06:39:53;;;;;;;0.20;0.00;;;21.40;99.90;;;;;;26430531;22;20170;-74
2022/06/04 06:50:00;;;;;;;0.20;0.00;;;21.40;99.90;;;;;;26400274;22;20226;-74
2022/06/04 07:00:05;;;;;;;0.20;0.00;;;21.40;99.90;;;;;;26424139;22;20220;-72
2022/06/04 07:10:12;;;;;;;0.20;0.00;;;21.60;99.90;;;;;;26401338;22;20182;-72
2022/06/04 07:20:15;;;;;;;0.20;0.00;;;21.80;99.90;;;;;;26426805;22;20260;-72
2022/06/04 07:30:21;;;;;;;0.20;0.00;;;21.80;99.90;;;;;;26426101;22;20189;-74
2022/06/04 07:40:25;;;;;;;0.20;0.00;;;22.20;99.90;;;;;;26425480;22;20281;-75
2022/06/04 07:50:30;;;;;;;0.20;0.00;;;22.20;99.90;;;;;;26424837;22;20182;-74
2022/06/04 08:00:37;;;;;;;0.20;0.00;;;22.00;99.90;;;;;;26396076;22;20204;-73
2022/06/04 08:10:46;;;;;;;0.20;0.00;;;22.10;99.90;;;;;;26407326;22;20189;-74
2022/06/04 08:20:50;;;;;;;0.20;0.00;;;22.60;99.90;;;;;;26434793;22;20150;-75
2022/06/04 08:31:02;;;;;;;0.20;0.00;;;22.40;99.90;;;;;;26409465;22;20185;-77
2022/06/04 08:41:09;;;;;;;0.20;0.00;;;22.20;99.90;;;;;;26412355;22;20616;-72
2022/06/04 08:51:21;;;;;;;0.20;0.00;;;22.40;99.90;;;;;;26437901;22;20182;-72
2022/06/04 09:01:30;;;;;;;0.20;0.00;;;22.60;99.90;;;;;;26438221;22;20218;-74
2022/06/04 09:11:45;;;;;;;0.20;0.00;;;22.40;99.90;;;;;;26411462;22;20293;-75
2022/06/04 09:21:50;;;;;;;0.20;0.00;;;22.50;99.90;;;;;;26403588;22;20176;-70
2022/06/04 09:32:03;;;;;;;0.20;0.00;;;22.40;99.90;;;;;;26429415;22;20247;-70
2022/06/04 09:42:21;;;;;;;0.20;0.00;;;22.80;99.90;;;;;;26401174;22;20169;-70
2022/06/04 09:52:35;;;;;;;0.20;0.00;;;22.50;99.90;;;;;;26418310;22;20189;-68
2022/06/04 10:02:39;;;;;;;0.20;0.10;;;22.50;99.90;;;;;;26399330;22;20186;-72
2022/06/04 10:23:15;;;;;;;0.20;0.00;;;22.90;99.90;;;;;;26414139;22;20172;-71
2022/06/04 10:33:31;;;;;;;0.20;0.10;;;23.10;99.90;;;;;;26425443;22;20181;-69
2022/06/04 10:44:04;;;;;;;0.20;0.00;;;22.90;99.90;;;;;;26426006;22;20330;-75
2022/06/04 10:54:16;;;;;;;0.20;0.00;;;23.30;99.90;;;;;;26427142;22;20197;-70
2022/06/04 11:04:31;;;;;;;0.20;0.10;;;26.20;99.90;;;;;;26413921;22;20223;-72
2022/06/04 11:14:41;;;;;;;0.20;0.00;;;27.00;99.90;;;;;;26424763;22;20186;-72
2022/06/04 11:24:49;;;;;;;0.20;0.10;;;26.70;99.90;;;;;;26397179;22;20188;-67
2022/06/04 11:35:21;;;;;;;0.20;0.00;;;26.90;99.90;;;;;;26396138;22;20193;-73
2022/06/04 11:45:50;;;;;;;0.20;0.00;;;25.90;99.90;;;;;;26423601;22;20162;-73
2022/06/04 11:56:02;;;;;;;0.20;0.00;;;27.00;99.90;;;;;;26423191;22;20224;-72
2022/06/04 12:06:14;;;;;;;0.20;0.00;;;26.90;99.90;;;;;;26426025;22;20161;-71
2022/06/04 12:16:25;;;;;;;0.20;0.00;;;27.50;99.90;;;;;;26374104;22;20208;-69
2022/06/04 12:26:31;;;;;;;0.20;0.00;;;29.60;99.90;;;;;;26425579;22;20165;-71
2022/06/04 12:36:37;;;;;;;0.20;0.00;;;28.30;99.90;;;;;;26399022;22;20186;-70
2022/06/04 12:46:41;;;;;;;0.20;0.00;;;28.70;99.90;;;;;;26425836;22;20166;-72
2022/06/04 12:56:54;;;;;;;0.20;0.10;;;27.90;99.90;;;;;;26428400;22;20217;-73
2022/06/04 13:07:12;;;;;;;0.20;0.00;;;27.70;99.90;;;;;;26427148;22;20169;-71
2022/06/04 13:17:28;;;;;;;0.20;0.00;;;26.80;99.90;;;;;;26430415;22;20182;-72
2022/06/04 13:27:39;;;;;;;0.20;0.00;;;26.70;99.90;;;;;;26400202;22;20177;-72
2022/06/04 13:37:45;;;;;;;0.20;0.00;;;26.20;99.90;;;;;;26404710;22;20194;-71
2022/06/04 13:47:55;;;;;;;0.20;0.10;;;26.40;99.90;;;;;;26427636;22;20158;-72
2022/06/04 14:08:16;;;;;;;0.20;0.00;;;25.50;99.90;;;;;;26407086;22;20258;-74
2022/06/04 14:18:34;;;;;;;0.20;0.00;;;26.20;99.90;;;;;;26397248;22;20189;-72
2022/06/04 14:28:49;;;;;;;0.20;0.00;;;28.90;99.90;;;;;;26399085;22;20162;-73
2022/06/04 14:38:54;;;;;;;0.20;0.00;;;29.90;99.90;;;;;;26397562;22;20246;-73
2022/06/04 14:49:30;;;;;;;0.20;0.10;;;29.50;99.90;;;;;;26422522;22;20162;-74
2022/06/04 15:00:01;;;;;;;0.20;0.00;;;29.40;99.90;;;;;;26380673;22;20201;-75
2022/06/04 15:10:24;;;;;;;0.20;0.00;;;29.80;99.90;;;;;;26345058;22;20590;-74
2022/06/04 15:20:35;;;;;;;0.20;0.00;;;29.40;99.90;;;;;;26292527;22;20187;-75
2022/06/04 15:41:38;;;;;;;0.20;0.00;;;29.90;99.90;;;;;;26239867;22;20186;-74
2022/06/04 16:02:17;;;;;;;0.20;0.00;;;29.00;99.90;;;;;;26261533;22;20167;-74
2022/06/04 16:12:35;;;;;;;0.20;0.00;;;28.40;99.90;;;;;;26288627;22;20194;-74
2022/06/04 16:22:43;;;;;;;0.20;0.00;;;28.50;99.90;;;;;;26262653;22;20158;-75
2022/06/04 16:33:17;;;;;;;0.20;0.00;;;27.90;99.90;;;;;;26297794;22;20198;-75
2022/06/04 16:43:21;;;;;;;0.20;0.00;;;27.40;99.90;;;;;;26295354;22;20155;-75
2022/06/04 16:53:27;;;;;;;0.20;0.00;;;27.50;99.90;;;;;;26299214;22;20199;-76
2022/06/04 17:03:37;;;;;;;0.20;0.00;;;28.50;99.90;;;;;;26299199;22;20166;-75
2022/06/04 17:13:53;;;;;;;0.20;0.00;;;29.20;99.90;;;;;;26366969;22;20198;-71
2022/06/04 17:24:02;;;;;;;0.20;0.00;;;28.80;99.90;;;;;;26528183;22;20251;-74
2022/06/04 17:34:15;;;;;;;0.20;0.00;;;28.60;99.90;;;;;;26531746;22;20192;-74
2022/06/04 17:44:19;;;;;;;0.20;0.00;;;28.30;99.90;;;;;;26532772;22;20164;-73
2022/06/04 17:54:25;;;;;;;0.20;0.00;;;27.80;99.90;;;;;;26557698;22;20193;-74
2022/06/04 18:04:29;;;;;;;0.20;0.00;;;27.40;99.90;;;;;;26555660;22;20210;-76
2022/06/04 18:14:35;;;;;;;0.20;0.00;;;27.00;99.90;;;;;;26502577;22;20201;-76
2022/06/04 18:24:40;;;;;;;0.20;0.00;;;26.60;99.90;;;;;;26526981;22;20158;-76
2022/06/04 18:34:46;;;;;;;0.20;0.00;;;25.70;99.90;;;;;;26547820;22;20181;-76
2022/06/04 18:55:13;;;;;;;0.20;0.00;;;24.70;99.90;;;;;;26527158;22;20185;-75
2022/06/04 19:05:17;;;;;;;0.20;0.00;;;24.20;99.90;;;;;;26554037;22;20153;-75
2022/06/04 19:15:29;;;;;;;0.20;0.00;;;23.90;99.90;;;;;;26554532;22;20200;-74
2022/06/04 19:25:33;;;;;;;0.20;0.00;;;23.60;99.90;;;;;;26524725;22;20172;-74
2022/06/04 19:35:46;;;;;;;0.20;0.00;;;23.30;99.90;;;;;;26498943;22;20188;-74
2022/06/04 19:45:50;;;;;;;0.20;0.00;;;23.10;99.90;;;;;;26551353;22;20187;-74
2022/06/04 19:55:55;;;;;;;0.20;0.00;;;22.90;99.90;;;;;;26552337;22;20265;-73
2022/06/04 20:05:59;;;;;;;0.20;0.00;;;22.80;99.90;;;;;;26524790;22;20237;-73
2022/06/04 20:16:04;;;;;;;0.20;0.00;;;22.60;99.90;;;;;;26553520;22;20204;-74
2022/06/04 20:26:09;;;;;;;0.20;0.00;;;22.50;99.90;;;;;;26525529;22;20176;-74
2022/06/04 20:36:16;;;;;;;0.20;0.00;;;22.40;99.90;;;;;;26553865;22;20192;-75
2022/06/04 20:46:21;;;;;;;0.20;0.00;;;22.50;99.90;;;;;;26555209;22;20172;-74
2022/06/04 20:56:28;;;;;;;0.20;0.00;;;22.40;99.90;;;;;;26530539;22;20189;-73
2022/06/04 21:06:35;;;;;;;0.20;0.00;;;21.90;99.90;;;;;;26528222;22;20189;-74
2022/06/04 21:16:40;;;;;;;0.20;0.00;;;22.00;99.90;;;;;;26533835;22;20193;-75
2022/06/04 21:26:46;;;;;;;0.20;0.00;;;21.80;99.90;;;;;;26534982;22;20169;-74
2022/06/04 21:47:13;;;;;;;0.20;0.00;;;21.20;99.90;;;;;;26564294;22;20173;-74
2022/06/04 21:57:19;;;;;;;0.20;0.00;;;21.60;99.90;;;;;;26559604;22;20328;-74
2022/06/04 22:07:24;;;;;;;0.20;0.10;;;21.80;99.90;;;;;;26562729;22;20209;-74
2022/06/04 22:17:30;;;;;;;0.20;0.00;;;22.60;99.90;;;;;;26562329;22;20189;-74
2022/06/04 22:27:34;;;;;;;0.20;0.00;;;22.40;99.90;;;;;;26561559;22;20165;-74
2022/06/04 22:37:40;;;;;;;0.20;0.00;;;22.20;99.90;;;;;;26560285;22;20196;-74
2022/06/04 22:47:43;;;;;;;0.20;0.00;;;22.10;99.90;;;;;;26564647;22;20165;-75
2022/06/04 22:57:49;;;;;;;0.20;0.00;;;22.00;99.90;;;;;;26563676;22;20189;-74
2022/06/04 23:07:54;;;;;;;0.20;0.00;;;22.10;99.90;;;;;;26562463;22;20185;-74
2022/06/04 23:28:26;;;;;;;0.20;0.00;;;22.20;99.90;;;;;;26533338;22;20153;-73
2022/06/04 23:38:32;;;;;;;0.20;0.00;;;22.20;99.90;;;;;;26533522;22;20196;-74
2022/06/04 23:48:35;;;;;;;0.20;0.00;;;22.10;99.90;;;;;;26559683;22;20157;-74
2022/06/04 23:58:43;;;;;;;0.20;0.00;;;22.00;99.90;;;;;;26558978;22;20185;-75
